sensor_id;sensor_type;location;lat;lon;timestamp;temperature;humidity
39503;DHT22;26970;49.900;10.774;2024-01-30T00:01:15;1.80;99.90
39503;DHT22;26970;49.900;10.774;2024-01-30T00:03:40;1.80;99.90
39503;DHT22;26970;49.900;10.774;2024-01-30T00:06:07;1.70;99.90
39503;DHT22;26970;49.900;10.774;2024-01-30T00:08:33;1.70;99.90
39503;DHT22;26970;49.900;10.774;2024-01-30T00:10:58;1.80;99.90
39503;DHT22;26970;49.900;10.774;2024-01-30T00:13:24;1.70;99.90
39503;DHT22;26970;49.900;10.774;2024-01-30T00:15:49;1.80;99.90
39503;DHT22;26970;49.900;10.774;2024-01-30T00:18:15;1.80;99.90
39503;DHT22;26970;49.900;10.774;2024-01-30T00:20:41;1.80;99.90
39503;DHT22;26970;49.900;10.774;2024-01-30T00:23:08;1.90;99.90
39503;DHT22;26970;49.900;10.774;2024-01-30T00:25:33;1.90;99.90
39503;DHT22;26970;49.900;10.774;2024-01-30T00:27:59;2.00;99.90
39503;DHT22;26970;49.900;10.774;2024-01-30T00:30:24;2.10;99.90
39503;DHT22;26970;49.900;10.774;2024-01-30T00:32:50;2.20;99.90
39503;DHT22;26970;49.900;10.774;2024-01-30T00:35:16;2.30;99.90
39503;DHT22;26970;49.900;10.774;2024-01-30T00:37:41;2.30;99.90
39503;DHT22;26970;49.900;10.774;2024-01-30T00:40:07;2.40;99.90
39503;DHT22;26970;49.900;10.774;2024-01-30T00:42:35;2.60;99.90
39503;DHT22;26970;49.900;10.774;2024-01-30T00:45:01;2.60;99.90
39503;DHT22;26970;49.900;10.774;2024-01-30T00:47:27;2.60;99.90
39503;DHT22;26970;49.900;10.774;2024-01-30T00:49:52;2.60;99.90
39503;DHT22;26970;49.900;10.774;2024-01-30T00:52:18;2.70;99.90
39503;DHT22;26970;49.900;10.774;2024-01-30T00:54:43;2.70;99.90
39503;DHT22;26970;49.900;10.774;2024-01-30T00:57:09;2.60;99.90
39503;DHT22;26970;49.900;10.774;2024-01-30T00:59:34;2.60;99.90
39503;DHT22;26970;49.900;10.774;2024-01-30T01:02:00;2.60;99.90
39503;DHT22;26970;49.900;10.774;2024-01-30T01:04:26;2.60;99.90
39503;DHT22;26970;49.900;10.774;2024-01-30T01:06:52;2.60;99.90
39503;DHT22;26970;49.900;10.774;2024-01-30T01:09:17;2.60;99.90
39503;DHT22;26970;49.900;10.774;2024-01-30T01:11:43;2.60;99.90
39503;DHT22;26970;49.900;10.774;2024-01-30T01:14:09;2.60;99.90
39503;DHT22;26970;49.900;10.774;2024-01-30T01:16:34;2.50;99.90
39503;DHT22;26970;49.900;10.774;2024-01-30T01:19:00;2.50;99.90
39503;DHT22;26970;49.900;10.774;2024-01-30T01:21:26;2.40;99.90
39503;DHT22;26970;49.900;10.774;2024-01-30T01:23:51;2.20;99.90
39503;DHT22;26970;49.900;10.774;2024-01-30T01:26:17;2.10;99.90
39503;DHT22;26970;49.900;10.774;2024-01-30T01:28:42;1.90;99.90
39503;DHT22;26970;49.900;10.774;2024-01-30T01:31:08;1.80;99.90
39503;DHT22;26970;49.900;10.774;2024-01-30T01:33:34;1.70;99.90
39503;DHT22;26970;49.900;10.774;2024-01-30T01:36:01;1.50;99.90
39503;DHT22;26970;49.900;10.774;2024-01-30T01:38:28;1.40;99.90
39503;DHT22;26970;49.900;10.774;2024-01-30T01:41:07;1.30;99.90
39503;DHT22;26970;49.900;10.774;2024-01-30T01:43:32;1.20;99.90
39503;DHT22;26970;49.900;10.774;2024-01-30T01:45:58;1.20;99.90
39503;DHT22;26970;49.900;10.774;2024-01-30T01:48:24;1.20;99.90
39503;DHT22;26970;49.900;10.774;2024-01-30T01:50:50;1.10;99.90
39503;DHT22;26970;49.900;10.774;2024-01-30T01:53:15;1.10;99.90
39503;DHT22;26970;49.900;10.774;2024-01-30T01:55:42;0.90;99.90
39503;DHT22;26970;49.900;10.774;2024-01-30T01:58:08;0.90;99.90
39503;DHT22;26970;49.900;10.774;2024-01-30T02:00:36;0.80;99.90
39503;DHT22;26970;49.900;10.774;2024-01-30T02:03:05;0.80;99.90
39503;DHT22;26970;49.900;10.774;2024-01-30T02:05:31;0.90;99.90
39503;DHT22;26970;49.900;10.774;2024-01-30T02:07:57;0.80;99.90
39503;DHT22;26970;49.900;10.774;2024-01-30T02:10:22;0.90;99.90
39503;DHT22;26970;49.900;10.774;2024-01-30T02:12:48;0.90;99.90
39503;DHT22;26970;49.900;10.774;2024-01-30T02:15:15;1.00;99.90
39503;DHT22;26970;49.900;10.774;2024-01-30T02:17:40;0.90;99.90
39503;DHT22;26970;49.900;10.774;2024-01-30T02:20:06;0.80;99.90
39503;DHT22;26970;49.900;10.774;2024-01-30T02:22:33;0.70;99.90
39503;DHT22;26970;49.900;10.774;2024-01-30T02:25:00;0.70;99.90
39503;DHT22;26970;49.900;10.774;2024-01-30T02:27:25;0.70;99.90
39503;DHT22;26970;49.900;10.774;2024-01-30T02:29:51;0.70;99.90
39503;DHT22;26970;49.900;10.774;2024-01-30T02:32:17;0.70;99.90
39503;DHT22;26970;49.900;10.774;2024-01-30T02:34:42;0.60;99.90
39503;DHT22;26970;49.900;10.774;2024-01-30T02:40:31;0.60;99.90
39503;DHT22;26970;49.900;10.774;2024-01-30T02:42:57;0.60;99.90
39503;DHT22;26970;49.900;10.774;2024-01-30T02:45:23;0.60;99.90
39503;DHT22;26970;49.900;10.774;2024-01-30T02:47:48;0.60;99.90
39503;DHT22;26970;49.900;10.774;2024-01-30T02:50:14;0.60;99.90
39503;DHT22;26970;49.900;10.774;2024-01-30T02:52:40;0.60;99.90
39503;DHT22;26970;49.900;10.774;2024-01-30T02:55:06;0.60;99.90
39503;DHT22;26970;49.900;10.774;2024-01-30T02:57:32;0.60;99.90
39503;DHT22;26970;49.900;10.774;2024-01-30T02:59:57;0.60;99.90
39503;DHT22;26970;49.900;10.774;2024-01-30T03:02:23;0.50;99.90
39503;DHT22;26970;49.900;10.774;2024-01-30T03:04:48;0.60;99.90
39503;DHT22;26970;49.900;10.774;2024-01-30T03:07:14;0.60;99.90
39503;DHT22;26970;49.900;10.774;2024-01-30T03:09:41;0.50;99.90
39503;DHT22;26970;49.900;10.774;2024-01-30T03:12:10;0.50;99.90
39503;DHT22;26970;49.900;10.774;2024-01-30T03:14:36;0.50;99.90
39503;DHT22;26970;49.900;10.774;2024-01-30T03:17:02;0.50;99.90
39503;DHT22;26970;49.900;10.774;2024-01-30T03:19:28;0.50;99.90
39503;DHT22;26970;49.900;10.774;2024-01-30T03:21:53;0.40;99.90
39503;DHT22;26970;49.900;10.774;2024-01-30T03:24:19;0.40;99.90
39503;DHT22;26970;49.900;10.774;2024-01-30T03:26:44;0.40;99.90
39503;DHT22;26970;49.900;10.774;2024-01-30T03:29:10;0.50;99.90
39503;DHT22;26970;49.900;10.774;2024-01-30T03:31:35;0.50;99.90
39503;DHT22;26970;49.900;10.774;2024-01-30T03:34:01;0.60;99.90
39503;DHT22;26970;49.900;10.774;2024-01-30T03:36:27;0.70;99.90
39503;DHT22;26970;49.900;10.774;2024-01-30T03:38:53;0.80;99.90
39503;DHT22;26970;49.900;10.774;2024-01-30T03:41:18;0.90;99.90
39503;DHT22;26970;49.900;10.774;2024-01-30T03:43:44;1.00;99.90
39503;DHT22;26970;49.900;10.774;2024-01-30T03:46:12;1.00;99.90
39503;DHT22;26970;49.900;10.774;2024-01-30T03:48:37;1.10;99.90
39503;DHT22;26970;49.900;10.774;2024-01-30T03:51:03;1.10;99.90
39503;DHT22;26970;49.900;10.774;2024-01-30T03:53:29;1.20;99.90
39503;DHT22;26970;49.900;10.774;2024-01-30T03:55:54;1.20;99.90
39503;DHT22;26970;49.900;10.774;2024-01-30T03:58:20;1.20;99.90
39503;DHT22;26970;49.900;10.774;2024-01-30T04:00:46;1.30;99.90
39503;DHT22;26970;49.900;10.774;2024-01-30T04:03:11;1.30;99.90
39503;DHT22;26970;49.900;10.774;2024-01-30T04:05:37;1.30;99.90
39503;DHT22;26970;49.900;10.774;2024-01-30T04:08:02;1.30;99.90
39503;DHT22;26970;49.900;10.774;2024-01-30T04:10:28;1.30;99.90
39503;DHT22;26970;49.900;10.774;2024-01-30T04:12:53;1.30;99.90
39503;DHT22;26970;49.900;10.774;2024-01-30T04:15:19;1.30;99.90
39503;DHT22;26970;49.900;10.774;2024-01-30T04:17:45;1.30;99.90
39503;DHT22;26970;49.900;10.774;2024-01-30T04:20:14;1.30;99.90
39503;DHT22;26970;49.900;10.774;2024-01-30T04:22:43;1.30;99.90
39503;DHT22;26970;49.900;10.774;2024-01-30T04:25:08;1.30;99.90
39503;DHT22;26970;49.900;10.774;2024-01-30T04:27:34;1.30;99.90
39503;DHT22;26970;49.900;10.774;2024-01-30T04:29:59;1.30;99.90
39503;DHT22;26970;49.900;10.774;2024-01-30T04:32:25;1.20;99.90
39503;DHT22;26970;49.900;10.774;2024-01-30T04:34:50;1.20;99.90
39503;DHT22;26970;49.900;10.774;2024-01-30T04:37:16;1.20;99.90
39503;DHT22;26970;49.900;10.774;2024-01-30T04:39:42;1.10;99.90
39503;DHT22;26970;49.900;10.774;2024-01-30T04:42:07;1.10;99.90
39503;DHT22;26970;49.900;10.774;2024-01-30T04:44:33;1.10;99.90
39503;DHT22;26970;49.900;10.774;2024-01-30T04:46:58;1.00;99.90
39503;DHT22;26970;49.900;10.774;2024-01-30T04:49:27;1.00;99.90
39503;DHT22;26970;49.900;10.774;2024-01-30T04:51:52;0.90;99.90
39503;DHT22;26970;49.900;10.774;2024-01-30T04:54:18;0.80;99.90
39503;DHT22;26970;49.900;10.774;2024-01-30T04:56:44;0.70;99.90
39503;DHT22;26970;49.900;10.774;2024-01-30T04:59:09;0.80;99.90
39503;DHT22;26970;49.900;10.774;2024-01-30T05:01:35;0.70;99.90
39503;DHT22;26970;49.900;10.774;2024-01-30T05:04:00;0.60;99.90
39503;DHT22;26970;49.900;10.774;2024-01-30T05:06:27;0.70;99.90
39503;DHT22;26970;49.900;10.774;2024-01-30T05:08:53;0.70;99.90
39503;DHT22;26970;49.900;10.774;2024-01-30T05:11:19;0.70;99.90
39503;DHT22;26970;49.900;10.774;2024-01-30T05:13:44;0.80;99.90
39503;DHT22;26970;49.900;10.774;2024-01-30T05:16:10;0.80;99.90
39503;DHT22;26970;49.900;10.774;2024-01-30T05:18:35;0.70;99.90
39503;DHT22;26970;49.900;10.774;2024-01-30T05:21:02;0.80;99.90
39503;DHT22;26970;49.900;10.774;2024-01-30T05:23:28;0.80;99.90
39503;DHT22;26970;49.900;10.774;2024-01-30T05:25:53;0.80;99.90
39503;DHT22;26970;49.900;10.774;2024-01-30T05:28:19;0.80;99.90
39503;DHT22;26970;49.900;10.774;2024-01-30T05:30:44;0.80;99.90
39503;DHT22;26970;49.900;10.774;2024-01-30T05:33:10;0.80;99.90
39503;DHT22;26970;49.900;10.774;2024-01-30T05:35:37;0.80;99.90
39503;DHT22;26970;49.900;10.774;2024-01-30T05:38:03;0.80;99.90
39503;DHT22;26970;49.900;10.774;2024-01-30T05:40:28;0.90;99.90
39503;DHT22;26970;49.900;10.774;2024-01-30T05:42:54;0.80;99.90
39503;DHT22;26970;49.900;10.774;2024-01-30T05:45:19;0.80;99.90
39503;DHT22;26970;49.900;10.774;2024-01-30T05:47:45;0.70;99.90
39503;DHT22;26970;49.900;10.774;2024-01-30T05:50:11;0.70;99.90
39503;DHT22;26970;49.900;10.774;2024-01-30T05:52:36;0.70;99.90
39503;DHT22;26970;49.900;10.774;2024-01-30T05:55:02;0.70;99.90
39503;DHT22;26970;49.900;10.774;2024-01-30T05:57:28;0.70;99.90
39503;DHT22;26970;49.900;10.774;2024-01-30T05:59:54;0.70;99.90
39503;DHT22;26970;49.900;10.774;2024-01-30T06:02:19;0.70;99.90
39503;DHT22;26970;49.900;10.774;2024-01-30T06:04:45;0.70;99.90
39503;DHT22;26970;49.900;10.774;2024-01-30T06:07:10;0.70;99.90
39503;DHT22;26970;49.900;10.774;2024-01-30T06:09:36;0.60;99.90
39503;DHT22;26970;49.900;10.774;2024-01-30T06:12:01;0.60;99.90
39503;DHT22;26970;49.900;10.774;2024-01-30T06:14:27;0.50;99.90
39503;DHT22;26970;49.900;10.774;2024-01-30T06:16:53;0.50;99.90
39503;DHT22;26970;49.900;10.774;2024-01-30T06:19:18;0.50;99.90
39503;DHT22;26970;49.900;10.774;2024-01-30T06:21:44;0.50;99.90
39503;DHT22;26970;49.900;10.774;2024-01-30T06:24:10;0.50;99.90
39503;DHT22;26970;49.900;10.774;2024-01-30T06:26:36;0.50;99.90
39503;DHT22;26970;49.900;10.774;2024-01-30T06:29:01;0.50;99.90
39503;DHT22;26970;49.900;10.774;2024-01-30T06:31:27;0.60;99.90
39503;DHT22;26970;49.900;10.774;2024-01-30T06:33:52;0.60;99.90
39503;DHT22;26970;49.900;10.774;2024-01-30T06:36:18;0.60;99.90
39503;DHT22;26970;49.900;10.774;2024-01-30T06:38:44;0.60;99.90
39503;DHT22;26970;49.900;10.774;2024-01-30T06:41:09;0.60;99.90
39503;DHT22;26970;49.900;10.774;2024-01-30T06:43:35;0.70;99.90
39503;DHT22;26970;49.900;10.774;2024-01-30T06:46:00;0.70;99.90
39503;DHT22;26970;49.900;10.774;2024-01-30T06:48:26;0.70;99.90
39503;DHT22;26970;49.900;10.774;2024-01-30T06:50:54;0.70;99.90
39503;DHT22;26970;49.900;10.774;2024-01-30T06:53:20;0.60;99.90
39503;DHT22;26970;49.900;10.774;2024-01-30T06:55:46;0.60;99.90
39503;DHT22;26970;49.900;10.774;2024-01-30T06:58:12;0.70;99.90
39503;DHT22;26970;49.900;10.774;2024-01-30T07:00:37;0.70;99.90
39503;DHT22;26970;49.900;10.774;2024-01-30T07:03:03;0.80;99.90
39503;DHT22;26970;49.900;10.774;2024-01-30T07:05:29;0.70;99.90
39503;DHT22;26970;49.900;10.774;2024-01-30T07:07:54;0.80;99.90
39503;DHT22;26970;49.900;10.774;2024-01-30T07:10:20;0.80;99.90
39503;DHT22;26970;49.900;10.774;2024-01-30T07:12:46;0.80;99.90
39503;DHT22;26970;49.900;10.774;2024-01-30T07:15:11;0.80;99.90
39503;DHT22;26970;49.900;10.774;2024-01-30T07:17:39;0.80;99.90
39503;DHT22;26970;49.900;10.774;2024-01-30T07:20:05;0.70;99.90
39503;DHT22;26970;49.900;10.774;2024-01-30T07:22:31;0.80;99.90
39503;DHT22;26970;49.900;10.774;2024-01-30T07:24:56;0.80;99.90
39503;DHT22;26970;49.900;10.774;2024-01-30T07:27:22;0.80;99.90
39503;DHT22;26970;49.900;10.774;2024-01-30T07:29:48;0.80;99.90
39503;DHT22;26970;49.900;10.774;2024-01-30T07:32:13;0.90;99.90
39503;DHT22;26970;49.900;10.774;2024-01-30T07:34:39;0.90;99.90
39503;DHT22;26970;49.900;10.774;2024-01-30T07:37:04;0.90;99.90
39503;DHT22;26970;49.900;10.774;2024-01-30T07:39:30;0.90;99.90
39503;DHT22;26970;49.900;10.774;2024-01-30T07:41:55;1.00;99.90
39503;DHT22;26970;49.900;10.774;2024-01-30T07:44:22;1.00;99.90
39503;DHT22;26970;49.900;10.774;2024-01-30T07:46:49;1.10;99.90
39503;DHT22;26970;49.900;10.774;2024-01-30T07:49:14;1.10;99.90
39503;DHT22;26970;49.900;10.774;2024-01-30T07:51:40;1.10;99.90
39503;DHT22;26970;49.900;10.774;2024-01-30T07:54:05;1.20;99.90
39503;DHT22;26970;49.900;10.774;2024-01-30T07:56:31;1.20;99.90
39503;DHT22;26970;49.900;10.774;2024-01-30T07:58:57;1.20;99.90
39503;DHT22;26970;49.900;10.774;2024-01-30T08:01:22;1.30;99.90
39503;DHT22;26970;49.900;10.774;2024-01-30T08:03:48;1.30;99.90
39503;DHT22;26970;49.900;10.774;2024-01-30T08:06:13;1.30;99.90
39503;DHT22;26970;49.900;10.774;2024-01-30T08:08:39;1.40;99.90
39503;DHT22;26970;49.900;10.774;2024-01-30T08:11:05;1.50;99.90
39503;DHT22;26970;49.900;10.774;2024-01-30T08:13:31;1.60;99.90
39503;DHT22;26970;49.900;10.774;2024-01-30T08:15:56;1.60;99.90
39503;DHT22;26970;49.900;10.774;2024-01-30T08:18:22;1.70;99.90
39503;DHT22;26970;49.900;10.774;2024-01-30T08:20:47;1.80;99.90
39503;DHT22;26970;49.900;10.774;2024-01-30T08:23:14;1.80;99.90
39503;DHT22;26970;49.900;10.774;2024-01-30T08:25:40;1.80;99.90
39503;DHT22;26970;49.900;10.774;2024-01-30T08:28:05;1.90;99.90
39503;DHT22;26970;49.900;10.774;2024-01-30T08:30:32;2.00;99.90
39503;DHT22;26970;49.900;10.774;2024-01-30T08:32:58;2.00;99.90
39503;DHT22;26970;49.900;10.774;2024-01-30T08:35:23;2.00;99.90
39503;DHT22;26970;49.900;10.774;2024-01-30T08:37:49;2.10;99.90
39503;DHT22;26970;49.900;10.774;2024-01-30T08:40:14;2.10;99.90
39503;DHT22;26970;49.900;10.774;2024-01-30T08:42:40;2.20;99.90
39503;DHT22;26970;49.900;10.774;2024-01-30T08:45:06;2.20;99.90
39503;DHT22;26970;49.900;10.774;2024-01-30T08:47:32;2.30;99.90
39503;DHT22;26970;49.900;10.774;2024-01-30T08:49:58;2.30;99.90
39503;DHT22;26970;49.900;10.774;2024-01-30T08:52:24;2.30;99.90
39503;DHT22;26970;49.900;10.774;2024-01-30T08:54:49;2.30;99.90
39503;DHT22;26970;49.900;10.774;2024-01-30T08:57:15;2.30;99.90
39503;DHT22;26970;49.900;10.774;2024-01-30T08:59:40;2.30;99.90
39503;DHT22;26970;49.900;10.774;2024-01-30T09:02:06;2.40;99.90
39503;DHT22;26970;49.900;10.774;2024-01-30T09:04:32;2.40;99.90
39503;DHT22;26970;49.900;10.774;2024-01-30T09:06:58;2.40;99.90
39503;DHT22;26970;49.900;10.774;2024-01-30T09:09:24;2.50;99.90
39503;DHT22;26970;49.900;10.774;2024-01-30T09:11:49;2.50;99.90
39503;DHT22;26970;49.900;10.774;2024-01-30T09:14:15;2.50;99.90
39503;DHT22;26970;49.900;10.774;2024-01-30T09:16:40;2.60;99.90
39503;DHT22;26970;49.900;10.774;2024-01-30T09:19:06;2.60;99.90
39503;DHT22;26970;49.900;10.774;2024-01-30T09:21:31;2.60;99.90
39503;DHT22;26970;49.900;10.774;2024-01-30T09:24:02;2.60;99.90
39503;DHT22;26970;49.900;10.774;2024-01-30T09:26:29;2.70;99.90
39503;DHT22;26970;49.900;10.774;2024-01-30T09:28:54;2.70;99.90
39503;DHT22;26970;49.900;10.774;2024-01-30T09:31:20;2.80;99.90
39503;DHT22;26970;49.900;10.774;2024-01-30T09:33:45;2.80;99.90
39503;DHT22;26970;49.900;10.774;2024-01-30T09:36:13;2.90;99.90
39503;DHT22;26970;49.900;10.774;2024-01-30T09:38:40;2.90;99.90
39503;DHT22;26970;49.900;10.774;2024-01-30T09:41:09;2.90;99.90
39503;DHT22;26970;49.900;10.774;2024-01-30T09:43:38;2.90;99.90
39503;DHT22;26970;49.900;10.774;2024-01-30T09:46:05;3.00;99.90
39503;DHT22;26970;49.900;10.774;2024-01-30T09:48:33;3.00;99.90
39503;DHT22;26970;49.900;10.774;2024-01-30T09:50:59;3.10;99.90
39503;DHT22;26970;49.900;10.774;2024-01-30T09:53:25;3.10;99.90
39503;DHT22;26970;49.900;10.774;2024-01-30T09:55:51;3.10;99.90
39503;DHT22;26970;49.900;10.774;2024-01-30T09:58:17;3.10;99.90
39503;DHT22;26970;49.900;10.774;2024-01-30T10:00:43;3.10;99.90
39503;DHT22;26970;49.900;10.774;2024-01-30T10:03:09;3.20;99.90
39503;DHT22;26970;49.900;10.774;2024-01-30T10:05:36;3.20;99.90
39503;DHT22;26970;49.900;10.774;2024-01-30T10:08:06;3.30;99.90
39503;DHT22;26970;49.900;10.774;2024-01-30T10:10:33;3.40;99.90
39503;DHT22;26970;49.900;10.774;2024-01-30T10:13:00;3.40;99.90
39503;DHT22;26970;49.900;10.774;2024-01-30T10:15:25;3.50;99.90
39503;DHT22;26970;49.900;10.774;2024-01-30T10:17:53;3.50;99.90
39503;DHT22;26970;49.900;10.774;2024-01-30T10:20:18;3.60;99.90
39503;DHT22;26970;49.900;10.774;2024-01-30T10:22:45;3.50;99.90
39503;DHT22;26970;49.900;10.774;2024-01-30T10:25:11;3.60;99.90
39503;DHT22;26970;49.900;10.774;2024-01-30T10:27:39;3.70;99.90
39503;DHT22;26970;49.900;10.774;2024-01-30T10:30:05;3.70;99.90
39503;DHT22;26970;49.900;10.774;2024-01-30T10:32:31;3.80;99.90
39503;DHT22;26970;49.900;10.774;2024-01-30T10:34:57;3.80;99.90
39503;DHT22;26970;49.900;10.774;2024-01-30T10:37:25;3.80;99.90
39503;DHT22;26970;49.900;10.774;2024-01-30T10:39:53;3.90;99.90
39503;DHT22;26970;49.900;10.774;2024-01-30T10:42:21;3.90;99.90
39503;DHT22;26970;49.900;10.774;2024-01-30T10:44:59;3.90;99.90
39503;DHT22;26970;49.900;10.774;2024-01-30T10:47:27;4.00;99.90
39503;DHT22;26970;49.900;10.774;2024-01-30T10:49:55;4.10;99.90
39503;DHT22;26970;49.900;10.774;2024-01-30T10:52:22;4.10;99.90
39503;DHT22;26970;49.900;10.774;2024-01-30T10:54:50;4.10;99.90
39503;DHT22;26970;49.900;10.774;2024-01-30T10:57:17;4.20;99.90
39503;DHT22;26970;49.900;10.774;2024-01-30T10:59:43;4.30;99.90
39503;DHT22;26970;49.900;10.774;2024-01-30T11:02:10;4.30;99.90
39503;DHT22;26970;49.900;10.774;2024-01-30T11:04:41;4.30;99.90
39503;DHT22;26970;49.900;10.774;2024-01-30T11:07:24;4.40;99.90
39503;DHT22;26970;49.900;10.774;2024-01-30T11:09:59;4.60;99.90
39503;DHT22;26970;49.900;10.774;2024-01-30T11:12:30;4.60;99.90
39503;DHT22;26970;49.900;10.774;2024-01-30T11:15:10;4.70;99.90
39503;DHT22;26970;49.900;10.774;2024-01-30T11:17:45;4.70;99.90
39503;DHT22;26970;49.900;10.774;2024-01-30T11:20:26;4.70;99.90
39503;DHT22;26970;49.900;10.774;2024-01-30T11:22:53;4.80;99.90
39503;DHT22;26970;49.900;10.774;2024-01-30T11:25:23;4.80;99.90
39503;DHT22;26970;49.900;10.774;2024-01-30T11:27:53;4.90;99.90
39503;DHT22;26970;49.900;10.774;2024-01-30T11:30:30;5.00;99.90
39503;DHT22;26970;49.900;10.774;2024-01-30T11:33:05;5.00;99.90
39503;DHT22;26970;49.900;10.774;2024-01-30T11:35:35;5.00;99.90
39503;DHT22;26970;49.900;10.774;2024-01-30T11:38:02;5.00;99.90
39503;DHT22;26970;49.900;10.774;2024-01-30T11:40:29;5.10;99.90
39503;DHT22;26970;49.900;10.774;2024-01-30T11:42:59;5.20;99.90
39503;DHT22;26970;49.900;10.774;2024-01-30T11:45:26;5.30;99.90
39503;DHT22;26970;49.900;10.774;2024-01-30T11:47:52;5.30;99.90
39503;DHT22;26970;49.900;10.774;2024-01-30T11:50:18;5.50;99.90
39503;DHT22;26970;49.900;10.774;2024-01-30T11:52:44;5.50;99.90
39503;DHT22;26970;49.900;10.774;2024-01-30T11:55:10;5.60;99.90
39503;DHT22;26970;49.900;10.774;2024-01-30T11:57:36;5.60;99.90
39503;DHT22;26970;49.900;10.774;2024-01-30T12:00:03;5.60;99.90
39503;DHT22;26970;49.900;10.774;2024-01-30T12:02:41;5.50;99.90
39503;DHT22;26970;49.900;10.774;2024-01-30T12:05:07;5.60;99.90
39503;DHT22;26970;49.900;10.774;2024-01-30T12:07:33;5.60;99.90
39503;DHT22;26970;49.900;10.774;2024-01-30T12:09:59;5.70;99.90
39503;DHT22;26970;49.900;10.774;2024-01-30T12:12:26;5.70;99.90
39503;DHT22;26970;49.900;10.774;2024-01-30T12:14:52;5.70;99.90
39503;DHT22;26970;49.900;10.774;2024-01-30T12:17:32;5.80;99.90
39503;DHT22;26970;49.900;10.774;2024-01-30T12:22:36;5.90;99.90
39503;DHT22;26970;49.900;10.774;2024-01-30T12:25:14;5.90;99.90
39503;DHT22;26970;49.900;10.774;2024-01-30T12:27:42;5.90;99.90
39503;DHT22;26970;49.900;10.774;2024-01-30T12:30:10;5.80;99.90
39503;DHT22;26970;49.900;10.774;2024-01-30T12:32:36;5.90;99.90
39503;DHT22;26970;49.900;10.774;2024-01-30T12:35:03;6.00;99.90
39503;DHT22;26970;49.900;10.774;2024-01-30T12:37:29;6.00;99.90
39503;DHT22;26970;49.900;10.774;2024-01-30T12:39:55;6.00;99.90
39503;DHT22;26970;49.900;10.774;2024-01-30T12:42:21;6.10;99.90
39503;DHT22;26970;49.900;10.774;2024-01-30T12:44:50;6.10;99.90
39503;DHT22;26970;49.900;10.774;2024-01-30T12:47:15;6.20;99.90
39503;DHT22;26970;49.900;10.774;2024-01-30T12:49:45;6.20;99.90
39503;DHT22;26970;49.900;10.774;2024-01-30T12:52:11;6.30;99.90
39503;DHT22;26970;49.900;10.774;2024-01-30T12:54:37;6.30;99.90
39503;DHT22;26970;49.900;10.774;2024-01-30T12:57:04;6.30;99.90
39503;DHT22;26970;49.900;10.774;2024-01-30T12:59:30;6.40;99.90
39503;DHT22;26970;49.900;10.774;2024-01-30T13:01:55;6.40;99.90
39503;DHT22;26970;49.900;10.774;2024-01-30T13:04:22;6.30;99.90
39503;DHT22;26970;49.900;10.774;2024-01-30T13:06:48;6.30;99.90
39503;DHT22;26970;49.900;10.774;2024-01-30T13:09:14;6.30;99.90
39503;DHT22;26970;49.900;10.774;2024-01-30T13:11:39;6.40;99.90
39503;DHT22;26970;49.900;10.774;2024-01-30T13:14:05;6.50;99.90
39503;DHT22;26970;49.900;10.774;2024-01-30T13:16:30;6.50;99.90
39503;DHT22;26970;49.900;10.774;2024-01-30T13:18:56;6.50;99.90
39503;DHT22;26970;49.900;10.774;2024-01-30T13:21:21;6.50;99.90
39503;DHT22;26970;49.900;10.774;2024-01-30T13:23:47;6.60;99.90
39503;DHT22;26970;49.900;10.774;2024-01-30T13:26:13;6.60;99.90
39503;DHT22;26970;49.900;10.774;2024-01-30T13:28:38;6.60;99.90
39503;DHT22;26970;49.900;10.774;2024-01-30T13:31:04;6.60;99.90
39503;DHT22;26970;49.900;10.774;2024-01-30T13:33:31;6.70;99.90
39503;DHT22;26970;49.900;10.774;2024-01-30T13:35:57;6.70;99.90
39503;DHT22;26970;49.900;10.774;2024-01-30T13:38:23;6.80;99.90
39503;DHT22;26970;49.900;10.774;2024-01-30T13:40:49;6.80;99.90
39503;DHT22;26970;49.900;10.774;2024-01-30T13:43:14;6.80;99.90
39503;DHT22;26970;49.900;10.774;2024-01-30T13:45:44;6.70;99.90
39503;DHT22;26970;49.900;10.774;2024-01-30T13:48:11;6.70;99.90
39503;DHT22;26970;49.900;10.774;2024-01-30T13:50:37;6.70;99.90
39503;DHT22;26970;49.900;10.774;2024-01-30T13:53:03;6.70;99.90
39503;DHT22;26970;49.900;10.774;2024-01-30T13:55:29;6.70;99.90
39503;DHT22;26970;49.900;10.774;2024-01-30T13:57:56;6.60;99.90
39503;DHT22;26970;49.900;10.774;2024-01-30T14:00:22;6.60;99.90
39503;DHT22;26970;49.900;10.774;2024-01-30T14:02:48;6.60;99.90
39503;DHT22;26970;49.900;10.774;2024-01-30T14:05:14;6.60;99.90
39503;DHT22;26970;49.900;10.774;2024-01-30T14:07:40;6.60;99.90
39503;DHT22;26970;49.900;10.774;2024-01-30T14:10:09;6.60;99.90
39503;DHT22;26970;49.900;10.774;2024-01-30T14:12:36;6.60;99.90
39503;DHT22;26970;49.900;10.774;2024-01-30T14:15:02;6.60;99.90
39503;DHT22;26970;49.900;10.774;2024-01-30T14:17:28;6.60;99.90
39503;DHT22;26970;49.900;10.774;2024-01-30T14:19:53;6.60;99.90
39503;DHT22;26970;49.900;10.774;2024-01-30T14:22:19;6.60;99.90
39503;DHT22;26970;49.900;10.774;2024-01-30T14:24:44;6.60;99.90
39503;DHT22;26970;49.900;10.774;2024-01-30T14:27:10;6.60;99.90
39503;DHT22;26970;49.900;10.774;2024-01-30T14:29:36;6.60;99.90
39503;DHT22;26970;49.900;10.774;2024-01-30T14:32:02;6.60;99.90
39503;DHT22;26970;49.900;10.774;2024-01-30T14:34:29;6.50;99.90
39503;DHT22;26970;49.900;10.774;2024-01-30T14:36:55;6.40;99.90
39503;DHT22;26970;49.900;10.774;2024-01-30T14:39:20;6.30;99.90
39503;DHT22;26970;49.900;10.774;2024-01-30T14:41:46;6.40;99.90
39503;DHT22;26970;49.900;10.774;2024-01-30T14:44:12;6.30;99.90
39503;DHT22;26970;49.900;10.774;2024-01-30T14:46:39;6.30;99.90
39503;DHT22;26970;49.900;10.774;2024-01-30T14:49:05;6.20;99.90
39503;DHT22;26970;49.900;10.774;2024-01-30T14:51:31;6.20;99.90
39503;DHT22;26970;49.900;10.774;2024-01-30T14:53:59;6.20;99.90
39503;DHT22;26970;49.900;10.774;2024-01-30T14:56:24;6.10;99.90
39503;DHT22;26970;49.900;10.774;2024-01-30T14:58:50;6.10;99.90
39503;DHT22;26970;49.900;10.774;2024-01-30T15:01:15;6.10;99.90
39503;DHT22;26970;49.900;10.774;2024-01-30T15:03:41;6.00;99.90
39503;DHT22;26970;49.900;10.774;2024-01-30T15:06:08;5.90;99.90
39503;DHT22;26970;49.900;10.774;2024-01-30T15:08:34;5.90;99.90
39503;DHT22;26970;49.900;10.774;2024-01-30T15:11:00;5.90;99.90
39503;DHT22;26970;49.900;10.774;2024-01-30T15:13:26;5.80;99.90
39503;DHT22;26970;49.900;10.774;2024-01-30T15:15:51;5.80;99.90
39503;DHT22;26970;49.900;10.774;2024-01-30T15:18:17;5.70;99.90
39503;DHT22;26970;49.900;10.774;2024-01-30T15:20:42;5.70;99.90
39503;DHT22;26970;49.900;10.774;2024-01-30T15:23:08;5.70;99.90
39503;DHT22;26970;49.900;10.774;2024-01-30T15:25:34;5.70;99.90
39503;DHT22;26970;49.900;10.774;2024-01-30T15:28:00;5.70;99.90
39503;DHT22;26970;49.900;10.774;2024-01-30T15:30:26;5.70;99.90